Nearby METAR Reports

 

KSJC - San Jose, California, USA
Distance from station: NE 14km
Actualización: 23/10/2020 03:53
Few Clouds
Few Clouds
 Viento del NO
Viento: NO 24 km/h
Temperatura: 18°C
Rocío: 12°C
Humedad: 68%
Barómetro: 1010.5 hPa
Clouds: Few Clouds
Visibility: 16 km
Cloud details: Few Clouds 2438 m
2020/10/23 01:53 KSJC 230153Z 31013KT 10SM FEW080 18/12 A2984 RMK AO2 SLP104 T01830122
KNUQ - Moffett Nas/Mtn, California, USA
Distance from station: N 14km
Actualización: 22/10/2020 15:55
NOT Current
Few Clouds
Few Clouds
 Viento del calm
Viento: Calma
Temperatura: 14°C
Rocío: 10°C
Humedad: 77%
Barómetro: 1010.2 hPa
Clouds: Few Clouds
Visibility: 16 km
Cloud details: Few Clouds 518 m
2020/10/22 13:55 KNUQ 221355Z AUTO 00000KT 10SM FEW017 14/10 A2983 RMK AO2
 
KPAO - Palo Alto, California, USA
Distance from station: NNO 23km
Actualización: 23/10/2020 03:47
Despejado
Despejado
 Viento del NNO
Viento: NNO 20 km/h
Temperatura: 17°C
Rocío: 13°C
Humedad: 77%
Barómetro: 1010.5 hPa
Clouds: Despejado
Visibility: 16 km
2020/10/23 01:47 KPAO 230147Z 33011KT 10SM SKC 17/13 A2984 RMK LAST
KRHV - San Jose/Reid, California, USA
Distance from station: ENE 19km
Actualización: 23/10/2020 02:50
NOT Current
Despejado
Despejado
 Viento del NO
Viento: NO 13 km/h
Temperatura: 23°C
Rocío: 7°C
Humedad: 36%
Barómetro: 1010.2 hPa
Clouds: Despejado
Visibility: 16 km
2020/10/23 00:50 KRHV 230050Z 32007KT 10SM SKC 23/07 A2983
 
KOAK - Oakland, California, USA
Distance from station: NNO 50km
Actualización: 23/10/2020 03:53
Despejado
Despejado
 Viento del NO
Viento: NO 11 km/h
Temperatura: 17°C
Rocío: 12°C
Humedad: 73%
Barómetro: 1011.2 hPa
Clouds: Despejado
Visibility: 16 km
2020/10/23 01:53 KOAK 230153Z 32006KT 10SM CLR 17/12 A2986 RMK AO2 SLP111 T01670117
KSQL - San Carlos Airpo, California, USA
Distance from station: NO 34km
Actualización: 23/10/2020 03:47
Despejado
Despejado
 Viento del O
Viento: O 15 km/h
Temperatura: 17°C
Rocío: 10°C
Humedad: 64%
Barómetro: 1010.8 hPa
Clouds: Despejado
Visibility: 16 km
2020/10/23 01:47 KSQL 230147Z 27008KT 10SM SKC 17/10 A2985
 
KSFO - San Francisco, California, USA
Distance from station: NO 49km
Actualización: 23/10/2020 03:56
Few Clouds
Few Clouds
 Viento del NO
Viento: NO 24 km/h
Temperatura: 15°C
Rocío: 12°C
Humedad: 82%
Barómetro: 1010.8 hPa
Clouds: Few Clouds
Visibility: 16 km
Cloud details: Few Clouds 183 m
2020/10/23 01:56 KSFO 230156Z 31013KT 10SM FEW006 15/12 A2985 RMK AO2 SLP107 T01500117
KE16 - San Martin, California, USA
Distance from station: ESE 43km
Actualización: 23/10/2020 03:55
Muy nuboso
Muy nuboso
 Viento del SE
Viento: SE 15 km/h
Temperatura: 17°C
Rocío: 12°C
Humedad: 73%
Barómetro: 1011.5 hPa
Clouds: Muy nuboso
Visibility: 16 km
Cloud details: Muy nuboso 762 m
Muy nuboso 945 m
2020/10/23 01:55 KE16 230155Z AUTO 14008KT 10SM BKN025 BKN031 17/12 A2987 RMK AO2 PWINO PNO
 
KWVI - Watsonville, California, USA
Distance from station: SSE 44km
Actualización: 23/10/2020 03:53
Cubierto
Cubierto
 Viento del ONO
Viento: ONO 11 km/h
Temperatura: 15°C
Rocío: 13°C
Humedad: 88%
Barómetro: 1012.2 hPa
Clouds: Cubierto
Visibility: 16 km
Cloud details: Muy nuboso 335 m
Cubierto 579 m
2020/10/23 01:53 KWVI 230153Z AUTO 30006KT 10SM BKN011 OVC019 15/13 A2989 RMK AO2 SLP120 T01500128
KHAF - Half Moon Bay, California, USA
Distance from station: ONO 50km
Actualización: 23/10/2020 03:55
Mist, Cubierto
Mist, Cubierto
 Viento del S
Viento: S 9 km/h
Temperatura: 14°C
Rocío: 12°C
Humedad: 88%
Barómetro: 1012.2 hPa
Resumen: Mist
Clouds: Cubierto
Visibility: 10 km
Cloud details: Cubierto 335 m
2020/10/23 01:55 KHAF 230155Z AUTO 17005KT 6SM BR OVC011 14/12 A2989 RMK AO2
 
KHWD - Hayward, California, USA
Distance from station: N 44km
Actualización: 23/10/2020 03:54
Despejado
Despejado
 Viento del NO
Viento: NO 11 km/h
Temperatura: 17°C
Rocío: 11°C
Humedad: 68%
Barómetro: 1010.8 hPa
Clouds: Despejado
Visibility: 11 km
2020/10/23 01:54 KHWD 230154Z 31006KT 7SM CLR 17/11 A2985 RMK AO2 SLP118 T01670111
KLVK - Livermore, California, USA
Distance from station: NNE 51km
Actualización: 23/10/2020 03:53
Despejado
Despejado
 Viento del E
Viento: E 13 km/h
Temperatura: 21°C
Rocío: -3°C
Humedad: 20%
Barómetro: 1010.2 hPa
Clouds: Despejado
Visibility: 16 km
2020/10/23 01:53 KLVK 230153Z 09007KT 10SM CLR 21/M03 A2983 RMK AO2 SLP098 T02061033